TAF KCMX
KCMX 072345Z 0800/0824 21006KT P6SM FEW025 FM080400 23008KT P6SM -SHSN BKN035 FM080600 25007KT 2SM -SHSN BR BKN029 FM080900 30007KT 1SM -SHSN BR OVC019 FM081800 31007KT 2SM BR BKN019=
METAR KCMX
WC KCMX
WS KCMX
WV KCMX